Terminal Aerodrome Forecast
Issued by NWS Mt. Holly, NJ

Home | Current Version | Previous Version | Text Only | Print | Product List | Glossary On
Versions: 1 2 3 4 5 6 7 8 9 10 11 12 13 14 15 16 17 18
158
FTUS41 KPHI 011735
TAFACY
TAF
KACY 011735Z 0118/0218 21012G22KT P6SM BKN025
     FM012000 23014G22KT P6SM SCT015 BKN050
      TEMPO 0121/0123 26025G40KT 3SM TSRA BR OVC015CB
     FM012300 24012G20KT P6SM BKN035
      TEMPO 0202/0206 3SM SHRA BR OVC015
     FM020600 27014G22KT P6SM BKN050
     FM020900 28016G24KT P6SM SCT050
     FM021400 29022G36KT P6SM FEW050=

USA.gov is the U.S. government's official web portal to all federal, state and local government web resources and services.